Michel A — TCQX8 — position and weather

sailwx.info

Track history (hours):
 
Tides and Currents Weather Stations Pressure Air Temp Water Temp Dewpoint Dewpoint Depression Visibility Wind Speed Wind Dir Waves Ship Positions

Michel A

Last reported at 2018-Feb-20 18:44 UTC. Time now 2018-Feb-22 11:15 UTC.
Position N 43°29' E 028°52'.

Length 184 m.

Type: Ship. MMSI: 271001050.

Date/timePositionNaut miles runAvg speedWind from/ knotsBaromVisibWave heightAir tempDewpointWater temp
2018-Feb-20 18:44N 43°29' E 028°52'314.8
2018-Feb-20 18:31N 43°32' E 028°51'714.6
2018-Feb-20 18:01N 43°40' E 028°50'714.5
2018-Feb-20 17:30N 43°47' E 028°49'714.5
2018-Feb-20 17:00N 43°54' E 028°49'612.0
2018-Feb-20 16:30N 43°60' E 028°47'713.3
2018-Feb-20 16:01N 44°06' E 028°42'4 8.0
2018-Feb-20 15:30N 44°09' E 028°40'1 1.4
2018-Feb-20 14:58N 44°09' E 028°39'0 0.0
2018-Feb-20 14:29N 44°09' E 028°39'0 0.0
2018-Feb-20 13:57N 44°09' E 028°39'0 0.0
2018-Feb-20 13:30N 44°09' E 028°39'0 0.0
2018-Feb-20 13:00N 44°09' E 028°39'0 0.0
2018-Feb-20 12:30N 44°09' E 028°39'0 0.0
2018-Feb-20 12:00N 44°09' E 028°39'0 0.0
2018-Feb-20 11:29N 44°09' E 028°39'0 0.0
2018-Feb-20 10:59N 44°09' E 028°39'0 0.0
2018-Feb-20 10:29N 44°09' E 028°39'0 0.0
2018-Feb-20 09:59N 44°09' E 028°39'0 0.0
2018-Feb-20 09:29N 44°09' E 028°39'0 0.0
2018-Feb-20 08:58N 44°09' E 028°39'0 0.0
2018-Feb-20 08:28N 44°09' E 028°39'0 0.0
2018-Feb-20 07:58N 44°09' E 028°39'0 0.0
2018-Feb-20 07:28N 44°09' E 028°39'0 0.0
2018-Feb-20 07:01N 44°09' E 028°39'0 0.0
2018-Feb-20 06:30N 44°09' E 028°39'0 0.0
2018-Feb-20 06:00N 44°09' E 028°39'0 0.0
2018-Feb-20 05:30N 44°09' E 028°39'0 0.0
2018-Feb-20 04:57N 44°09' E 028°39'0 0.0
2018-Feb-20 04:29N 44°09' E 028°39'0 0.0
2018-Feb-20 03:59N 44°09' E 028°39'0 0.0
2018-Feb-20 03:29N 44°09' E 028°39'0 0.0
2018-Feb-20 02:59N 44°09' E 028°39'0 0.0
2018-Feb-20 02:29N 44°09' E 028°39'0 0.0
2018-Feb-20 01:58N 44°09' E 028°39'0 0.0
2018-Feb-20 01:28N 44°09' E 028°39'0 0.0
2018-Feb-20 00:58N 44°09' E 028°39'0 0.0
2018-Feb-20 00:25N 44°09' E 028°39'0 0.0
2018-Feb-20 00:01N 44°09' E 028°39'0 0.0
2018-Feb-19 23:30N 44°09' E 028°39'0 0.0
2018-Feb-19 23:00N 44°09' E 028°39'0 0.0
2018-Feb-19 22:30N 44°09' E 028°39'0 0.0
2018-Feb-19 22:00N 44°09' E 028°39'0 0.0
2018-Feb-19 21:23N 44°09' E 028°39'0 0.0
2018-Feb-19 20:59N 44°09' E 028°39'0 0.0
2018-Feb-19 20:26N 44°09' E 028°39'0 0.0
2018-Feb-19 19:59N 44°09' E 028°39'0 0.0
2018-Feb-19 19:29N 44°09' E 028°39'0 0.0
2018-Feb-19 18:58N 44°09' E 028°39'0 0.0
2018-Feb-19 18:28N 44°09' E 028°39'0 0.0
2018-Feb-19 17:58N 44°09' E 028°39'0 0.0
2018-Feb-19 17:28N 44°09' E 028°39'0 0.0
2018-Feb-19 17:00N 44°09' E 028°39'0 0.0
2018-Feb-19 16:30N 44°09' E 028°39'0 0.0
2018-Feb-19 16:00N 44°09' E 028°39'0 0.0
2018-Feb-19 15:30N 44°09' E 028°39'0 0.0
2018-Feb-19 15:00N 44°09' E 028°39'0 0.0
2018-Feb-19 14:30N 44°09' E 028°39'0 0.7
2018-Feb-19 14:00N 44°09' E 028°39'3 5.7
2018-Feb-19 13:30N 44°07' E 028°41'4 7.2
2018-Feb-19 13:01N 44°04' E 028°45'510.0
2018-Feb-19 12:30N 44°00' E 028°49'611.2
2018-Feb-19 12:01N 43°55' E 028°50'611.4
2018-Feb-19 11:30N 43°49' E 028°51'611.3
2018-Feb-19 11:00N 43°43' E 028°51'510.8
2018-Feb-19 10:30N 43°38' E 028°52'611.0
2018-Feb-19 10:00N 43°32' E 028°53'405 9.6
2018-Feb-17 16:03N 37°40' E 024°31'113.1
2018-Feb-17 15:59N 37°40' E 024°31'49112.1
2018-Feb-15 23:34N 36°28' E 014°22'  
Track history (hours):
 
Tides and Currents Weather Stations Pressure Air Temp Water Temp Dewpoint Dewpoint Depression Visibility Wind Speed Wind Dir Waves Ship Positions

Michel A

Last reported at 2018-Feb-20 18:44 UTC. Time now 2018-Feb-22 11:15 UTC.
Position N 43°29' E 028°52'.

Length 184 m.

Type: Ship. MMSI: 271001050.

Date/timePositionNaut miles runAvg speedWind from/ knotsBaromVisibWave heightAir tempDewpointWater temp
2018-Feb-20 18:44N 43°29' E 028°52'314.8
2018-Feb-20 18:31N 43°32' E 028°51'714.6
2018-Feb-20 18:01N 43°40' E 028°50'714.5
2018-Feb-20 17:30N 43°47' E 028°49'714.5
2018-Feb-20 17:00N 43°54' E 028°49'612.0
2018-Feb-20 16:30N 43°60' E 028°47'713.3
2018-Feb-20 16:01N 44°06' E 028°42'4 8.0
2018-Feb-20 15:30N 44°09' E 028°40'1 1.4
2018-Feb-20 14:58N 44°09' E 028°39'0 0.0
2018-Feb-20 14:29N 44°09' E 028°39'0 0.0
2018-Feb-20 13:57N 44°09' E 028°39'0 0.0
2018-Feb-20 13:30N 44°09' E 028°39'0 0.0
2018-Feb-20 13:00N 44°09' E 028°39'0 0.0
2018-Feb-20 12:30N 44°09' E 028°39'0 0.0
2018-Feb-20 12:00N 44°09' E 028°39'0 0.0
2018-Feb-20 11:29N 44°09' E 028°39'0 0.0
2018-Feb-20 10:59N 44°09' E 028°39'0 0.0
2018-Feb-20 10:29N 44°09' E 028°39'0 0.0
2018-Feb-20 09:59N 44°09' E 028°39'0 0.0
2018-Feb-20 09:29N 44°09' E 028°39'0 0.0
2018-Feb-20 08:58N 44°09' E 028°39'0 0.0
2018-Feb-20 08:28N 44°09' E 028°39'0 0.0
2018-Feb-20 07:58N 44°09' E 028°39'0 0.0
2018-Feb-20 07:28N 44°09' E 028°39'0 0.0
2018-Feb-20 07:01N 44°09' E 028°39'0 0.0
2018-Feb-20 06:30N 44°09' E 028°39'0 0.0
2018-Feb-20 06:00N 44°09' E 028°39'0 0.0
2018-Feb-20 05:30N 44°09' E 028°39'0 0.0
2018-Feb-20 04:57N 44°09' E 028°39'0 0.0
2018-Feb-20 04:29N 44°09' E 028°39'0 0.0
2018-Feb-20 03:59N 44°09' E 028°39'0 0.0
2018-Feb-20 03:29N 44°09' E 028°39'0 0.0
2018-Feb-20 02:59N 44°09' E 028°39'0 0.0
2018-Feb-20 02:29N 44°09' E 028°39'0 0.0
2018-Feb-20 01:58N 44°09' E 028°39'0 0.0
2018-Feb-20 01:28N 44°09' E 028°39'0 0.0
2018-Feb-20 00:58N 44°09' E 028°39'0 0.0
2018-Feb-20 00:25N 44°09' E 028°39'0 0.0
2018-Feb-20 00:01N 44°09' E 028°39'0 0.0
2018-Feb-19 23:30N 44°09' E 028°39'0 0.0
2018-Feb-19 23:00N 44°09' E 028°39'0 0.0
2018-Feb-19 22:30N 44°09' E 028°39'0 0.0
2018-Feb-19 22:00N 44°09' E 028°39'0 0.0
2018-Feb-19 21:23N 44°09' E 028°39'0 0.0
2018-Feb-19 20:59N 44°09' E 028°39'0 0.0
2018-Feb-19 20:26N 44°09' E 028°39'0 0.0
2018-Feb-19 19:59N 44°09' E 028°39'0 0.0
2018-Feb-19 19:29N 44°09' E 028°39'0 0.0
2018-Feb-19 18:58N 44°09' E 028°39'0 0.0
2018-Feb-19 18:28N 44°09' E 028°39'0 0.0
2018-Feb-19 17:58N 44°09' E 028°39'0 0.0
2018-Feb-19 17:28N 44°09' E 028°39'0 0.0
2018-Feb-19 17:00N 44°09' E 028°39'0 0.0
2018-Feb-19 16:30N 44°09' E 028°39'0 0.0
2018-Feb-19 16:00N 44°09' E 028°39'0 0.0
2018-Feb-19 15:30N 44°09' E 028°39'0 0.0
2018-Feb-19 15:00N 44°09' E 028°39'0 0.0
2018-Feb-19 14:30N 44°09' E 028°39'0 0.7
2018-Feb-19 14:00N 44°09' E 028°39'3 5.7
2018-Feb-19 13:30N 44°07' E 028°41'4 7.2
2018-Feb-19 13:01N 44°04' E 028°45'510.0
2018-Feb-19 12:30N 44°00' E 028°49'611.2
2018-Feb-19 12:01N 43°55' E 028°50'611.4
2018-Feb-19 11:30N 43°49' E 028°51'611.3
2018-Feb-19 11:00N 43°43' E 028°51'510.8
2018-Feb-19 10:30N 43°38' E 028°52'611.0
2018-Feb-19 10:00N 43°32' E 028°53'405 9.6
2018-Feb-17 16:03N 37°40' E 024°31'113.1
2018-Feb-17 15:59N 37°40' E 024°31'49112.1
2018-Feb-15 23:34N 36°28' E 014°22'  

Dump ship's entire track history